• Join FlightAware (Why Join?)
  • Login
  • US Flag 
02:48AM EDT


 

Airport Tracker/Info


-or-


 

Live Flight TrackerFlight Track Log ✈ VOZ4198 ✈ 10-May-2013 ✈ WADD / DPS - YBBN / BNE

Flight Track Log - Related Links

Times and Time Zones

All times are in EDT time to prevent confusion due to time zone crossing. See the VOZ4198 flight status page for this flight to view local times or setup timezone preferences in your user account.

Time Position Orientation Groundspeed Altitude Reporting Facility
EDT Latitude Longitude Course Direction KTS MPH feet Rate Location/Type
12:36PM -8.7480 115.1850 90° East 172 198 700  Level FlightAware
12:36PM -8.7470 115.2100 88° East 182 209 1,700 1,620 Climbing FlightAware
12:37PM -8.7460 115.2300 87° East 207 238 2,200 1,200 Climbing FlightAware
12:37PM -8.7630 115.2610 119° Southeast 253 291 2,800 1,680 Climbing FlightAware
12:38PM -8.7760 115.2720 140° Southeast 255 293 3,500 2,820 Climbing FlightAware
12:38PM -8.7980 115.2910 140° Southeast 258 297 4,700 2,580 Climbing FlightAware
12:38PM -8.8260 115.3150 140° Southeast 270 311 5,900 2,400 Climbing FlightAware
12:39PM -8.8510 115.3370 139° Southeast 280 322 6,900 2,460 Climbing FlightAware
12:39PM -8.8810 115.3630 139° Southeast 289 333 8,200 2,460 Climbing FlightAware
12:40PM -8.9060 115.3850 139° Southeast 293 337 9,200 2,400 Climbing FlightAware
12:40PM -8.9230 115.3990 141° Southeast 301 346 9,800 1,680 Climbing FlightAware
12:41PM -8.9730 115.4430 139° Southeast 332 382 10,900 1,500 Climbing FlightAware
12:41PM -9.0190 115.4830 139° Southeast 350 403 12,000 1,920 Climbing FlightAware
12:42PM -9.0700 115.5270 140° Southeast 359 413 13,500 1,920 Climbing FlightAware
12:43PM -9.1220 115.5720 139° Southeast 373 429 14,600 1,920 Climbing FlightAware
12:44PM -9.1900 115.6320 139° Southeast 382 440 16,400 2,040 Climbing FlightAware
12:44PM -9.2410 115.6770 139° Southeast 382 440 17,700 1,260 Climbing FlightAware
12:45PM -9.2850 115.7150 140° Southeast 384 442 18,000 240 Climbing FlightAware
12:46PM -9.3300 115.7550 139° Southeast 384 442 18,000 1,980 Level FlightAware
12:46PM -9.4180 115.8310 140° Southeast 412 474 21,000 2,220 Climbing FlightAware
12:47PM -9.4630 115.8700 139° Southeast 413 475 21,200 1,320 Climbing FlightAware
12:48PM -9.5360 115.9340 139° Southeast 429 494 22,800 1,320 Climbing FlightAware
12:48PM -9.5920 115.9830 139° Southeast 432 497 23,100 180 Climbing FlightAware
12:49PM -9.6440 116.0280 140° Southeast 432 497 23,100  Level FlightAware
12:50PM -9.7080 116.0850 139° Southeast 432 497 23,100  Level FlightAware
12:51PM -9.7590 116.1300 139° Southeast 432 497 23,100  Level FlightAware
12:51PM -9.8100 116.1750 139° Southeast 432 497 23,100  Level FlightAware
12:52PM -9.8620 116.2210 139° Southeast 432 497 23,100 60 Level FlightAware
12:55PM -10.1260 116.4699 137° Southeast  Level FlightAware Approximate
12:56PM -10.2262 116.5645 137° Southeast  Level FlightAware Approximate
12:57PM -10.3263 116.6592 137° Southeast  Level FlightAware Approximate
12:58PM -10.4265 116.7540 137° Southeast  Level FlightAware Approximate
12:59PM -10.5266 116.8488 137° Southeast  Level FlightAware Approximate
01:00PM -10.6266 116.9437 137° Southeast  Level FlightAware Approximate
01:01PM -10.7267 117.0386 137° Southeast  Level FlightAware Approximate
01:02PM -10.8267 117.1336 137° Southeast  Level FlightAware Approximate
01:03PM -10.9267 117.2287 137° Southeast  Level FlightAware Approximate
01:04PM -11.0267 117.3238 137° Southeast  Level FlightAware Approximate
01:05PM -11.1266 117.4190 137° Southeast  Level FlightAware Approximate
01:06PM -11.2265 117.5142 137° Southeast  Level FlightAware Approximate
01:07PM -11.3264 117.6096 137° Southeast  Level FlightAware Approximate
01:08PM -11.4263 117.7049 137° Southeast  Level FlightAware Approximate
01:08PM -12.0442 118.2977 131° Southeast 35,000  Level Aus ATC (Calculated)
01:09PM -11.5261 117.8004 137° Southeast  Level FlightAware Approximate
01:10PM -11.9315 118.1889 317° Northwest  Level FlightAware Approximate
01:10PM -12.2194 118.4673 131° Southeast 35,000  Level Aus ATC (Calculated)
01:12PM -12.0886 118.3406 317° Northwest  Level FlightAware Approximate
01:12PM -12.3459 118.5900 131° Southeast 35,000  Level Aus ATC (Calculated)
01:12PM -12.3873 118.6302 131° Southeast 35,000  Level Aus ATC (Calculated)
01:14PM -12.2648 118.5114 317° Northwest  Level FlightAware Approximate
01:14PM -12.5105 118.7499 131° Southeast 35,000  Level Aus ATC (Calculated)
01:15PM -12.6709 118.9059 131° Southeast 35,000  Level Aus ATC (Calculated)
01:16PM -12.6444 118.9869 137° Southeast  Level Estimated
01:17PM -12.7923 119.0243 136° Southeast  Level FlightAware Approximate
01:18PM -12.8908 119.1204 136° Southeast  Level FlightAware Approximate
01:19PM -12.9893 119.2165 136° Southeast  Level FlightAware Approximate
01:19PM -13.0201 119.2466 131° Southeast 35,000  Level Aus ATC (Calculated)
01:21PM -13.1906 119.4135 136° Southeast  Level FlightAware Approximate
01:22PM -13.2889 119.5099 136° Southeast  Level FlightAware Approximate
01:23PM -13.3872 119.6064 136° Southeast  Level FlightAware Approximate
01:24PM -13.4855 119.7029 136° Southeast  Level FlightAware Approximate
01:24PM -13.4523 119.6703 130° Southeast 35,000  Level Aus ATC (Calculated)
01:25PM -13.5837 119.7995 136° Southeast  Level FlightAware Approximate
01:26PM -13.5997 119.8152 136° Southeast  Level FlightAware Approximate
01:27PM -13.6978 119.9119 136° Southeast  Level FlightAware Approximate
01:27PM -13.7131 119.9270 130° Southeast 35,000  Level Aus ATC (Calculated)
01:28PM -13.7959 120.0087 136° Southeast  Level FlightAware Approximate
01:29PM -13.8194 120.0319 136° Southeast  Level FlightAware Approximate
01:30PM -13.9175 120.1288 136° Southeast  Level FlightAware Approximate
01:30PM -14.0184 120.2286 130° Southeast 35,000  Level Aus ATC (Calculated)
01:31PM -14.0155 120.2258 136° Southeast  Level FlightAware Approximate
01:32PM -14.1245 120.3337 136° Southeast  Level FlightAware Approximate
01:33PM -14.2225 120.4309 136° Southeast  Level FlightAware Approximate
01:34PM -14.3204 120.5281 136° Southeast  Level FlightAware Approximate
01:35PM -14.4183 120.6254 136° Southeast  Level FlightAware Approximate
01:35PM -14.5241 120.7307 129° Southeast 35,000  Level Aus ATC (Calculated)
01:36PM -14.5161 120.7228 136° Southeast  Level FlightAware Approximate
01:37PM -14.6317 120.8380 136° Southeast  Level FlightAware Approximate
01:38PM -14.7294 120.9356 136° Southeast  Level FlightAware Approximate
01:39PM -14.8272 121.0333 136° Southeast  Level FlightAware Approximate
01:40PM -14.9248 121.1310 136° Southeast  Level FlightAware Approximate
01:40PM -15.0059 121.2123 129° Southeast 35,000  Level Aus ATC (Calculated)
01:41PM -15.0225 121.2289 136° Southeast  Level FlightAware Approximate
01:42PM -15.1230 121.3298 136° Southeast  Level FlightAware Approximate
01:43PM -15.2206 121.4279 136° Southeast  Level FlightAware Approximate
01:44PM -15.3181 121.5260 136° Southeast  Level FlightAware Approximate
01:45PM -15.4155 121.6242 136° Southeast  Level FlightAware Approximate
01:45PM -15.4927 121.7021 128° Southeast 35,000  Level Aus ATC (Calculated)
01:47PM -15.6096 121.8202 136° Southeast  Level FlightAware Approximate
01:48PM -15.7069 121.9187 136° Southeast  Level FlightAware Approximate
01:49PM -15.8042 122.0173 136° Southeast  Level FlightAware Approximate
01:50PM -15.9014 122.1160 136° Southeast  Level FlightAware Approximate
01:50PM -15.9531 122.1685 128° Southeast 35,000  Level Aus ATC (Calculated)
01:51PM -15.9986 122.2148 136° Southeast  Level FlightAware Approximate
01:52PM -16.0714 122.2888 136° Southeast  Level FlightAware Approximate
01:53PM -16.1685 122.3877 136° Southeast  Level FlightAware Approximate
01:54PM -16.2655 122.4868 136° Southeast  Level FlightAware Approximate
01:55PM -16.3626 122.5859 136° Southeast  Level FlightAware Approximate
01:55PM -16.4145 122.6391 127° Southeast 35,000  Level Aus ATC (Calculated)
01:56PM -16.4596 122.6852 136° Southeast  Level FlightAware Approximate
01:57PM -16.5325 122.7599 136° Southeast  Level FlightAware Approximate
01:58PM -16.6294 122.8594 135° Southeast  Level FlightAware Approximate
01:59PM -16.7262 122.9589 135° Southeast  Level FlightAware Approximate
02:00PM -16.8230 123.0585 135° Southeast  Level FlightAware Approximate
02:00PM -16.8924 123.1300 126° Southeast 35,000  Level Aus ATC (Calculated)
02:01PM -16.9360 123.1750 126° Southeast 35,000  Level Aus ATC (Calculated)
02:02PM -17.0117 123.2531 135° Southeast  Level FlightAware Approximate
02:03PM -17.1020 123.3464 135° Southeast  Level FlightAware Approximate
02:04PM -17.1986 123.4464 135° Southeast  Level FlightAware Approximate
02:05PM -17.2952 123.5466 135° Southeast  Level FlightAware Approximate
02:05PM -17.3850 123.6399 126° Southeast 35,000  Level Aus ATC (Calculated)
02:06PM -17.3917 123.6468 135° Southeast  Level FlightAware Approximate
02:07PM -17.5040 123.7637 135° Southeast  Level FlightAware Approximate
02:08PM -17.6004 123.8641 135° Southeast  Level FlightAware Approximate
02:09PM -17.5040 123.7637 315° West  Level FlightAware Approximate
02:10PM -17.6004 123.8641 135° Southeast  Level FlightAware Approximate
02:10PM -17.8041 124.2449 125° Southeast 35,000  Level Aus ATC (Calculated)
02:11PM -17.5040 123.7637 315° West  Level FlightAware Approximate
02:12PM -17.8903 124.4390 125° Southeast  Level Estimated
02:13PM -17.9715 124.5536 127° Southeast  Level FlightAware Approximate
02:14PM -18.0526 124.6682 127° Southeast  Level FlightAware Approximate
02:15PM -18.1336 124.7830 127° Southeast  Level FlightAware Approximate
02:15PM -18.2133 124.8410 125° Southeast 35,000  Level Aus ATC (Calculated)
02:16PM -18.2146 124.8979 127° Southeast  Level FlightAware Approximate
02:17PM -18.3388 125.0251 126° Southeast  Level FlightAware Approximate
02:18PM -18.4180 125.1414 126° Southeast  Level FlightAware Approximate
02:19PM -18.4972 125.2579 126° Southeast  Level FlightAware Approximate
02:20PM -18.5762 125.3745 126° Southeast  Level FlightAware Approximate
02:20PM -18.6714 125.5150 125° Southeast 35,000  Level Aus ATC (Calculated)
02:22PM -18.7972 125.7013 126° Southeast  Level FlightAware Approximate
02:23PM -18.8757 125.8179 125° Southeast  Level FlightAware Approximate
02:24PM -18.9541 125.9347 125° Southeast  Level FlightAware Approximate
02:24PM -18.9860 125.9822 125° Southeast 35,000  Level Aus ATC (Calculated)
02:25PM -19.0971 126.1479 125° Southeast 35,000  Level Aus ATC (Calculated)
02:27PM -19.2214 126.3340 125° Southeast  Level FlightAware Approximate
02:28PM -19.2990 126.4504 125° Southeast  Level FlightAware Approximate
02:29PM -19.3766 126.5670 125° Southeast  Level FlightAware Approximate
02:30PM -19.4541 126.6837 125° Southeast  Level FlightAware Approximate
02:30PM -19.5482 126.8316 124° Southeast 35,000  Level Aus ATC (Calculated)
02:31PM -19.3766 126.5670 305° West  Level FlightAware Approximate
02:32PM -19.4258 126.6408 304° West  Level FlightAware Approximate
02:33PM -19.5016 126.7587 124° Southeast  Level FlightAware Approximate
02:33PM -19.7855 127.2029 124° Southeast 35,000  Level Aus ATC (Calculated)
02:34PM -19.4258 126.6408 304° West  Level FlightAware Approximate
02:35PM -19.8694 127.4163 124° Southeast  Level Estimated
02:35PM -19.9432 127.4511 124° Southeast 35,000  Level Aus ATC (Calculated)
02:36PM -20.0184 127.5698 124° Southeast  Level FlightAware Approximate
02:36PM -20.1006 127.6997 124° Southeast 35,000  Level Aus ATC (Calculated)
02:37PM -20.0936 127.6886 124° Southeast  Level FlightAware Approximate
02:38PM -20.1919 127.8445 124° Southeast  Level FlightAware Approximate
02:38PM -20.2184 127.8865 124° Southeast 35,000  Level Aus ATC (Calculated)
02:40PM -20.3458 128.0892 124° Southeast  Level FlightAware Approximate
02:41PM -20.4206 128.2085 124° Southeast  Level FlightAware Approximate
02:42PM -20.4953 128.3280 124° Southeast  Level FlightAware Approximate
02:43PM -20.5699 128.4476 124° Southeast  Level FlightAware Approximate
02:43PM -20.6097 128.5113 124° Southeast 35,000  Level Aus ATC (Calculated)
02:45PM -20.7375 128.7169 124° Southeast  Level FlightAware Approximate
02:46PM -20.8119 128.8369 124° Southeast  Level FlightAware Approximate
02:47PM -20.8862 128.9570 124° Southeast  Level FlightAware Approximate
02:47PM -20.9986 129.1392 123° Southeast 35,000  Level Aus ATC (Calculated)
02:48PM -20.9604 129.0772 123° Southeast  Level FlightAware Approximate
02:49PM -21.0912 129.2897 123° Southeast  Level FlightAware Approximate
02:49PM -21.1149 129.3282 123° Southeast 35,000  Level Aus ATC (Calculated)
02:50PM -21.1888 129.4488 123° Southeast  Level FlightAware Approximate
02:50PM -21.1922 129.4544 123° Southeast 35,000  Level Aus ATC (Calculated)
02:50PM -21.2309 129.5175 123° Southeast 35,000 60 Level Aus ATC (Calculated)
02:52PM -21.3342 129.6866 123° Southeast  Level FlightAware Approximate
02:53PM -21.4079 129.8075 123° Southeast  Level FlightAware Approximate
02:54PM -21.4815 129.9286 123° Southeast  Level FlightAware Approximate
02:55PM -21.5550 130.0497 123° Southeast  Level FlightAware Approximate
02:55PM -21.6545 130.2141 123° Southeast 35,000  Level Aus ATC (Calculated)
02:56PM -21.6284 130.1710 123° Southeast  Level FlightAware Approximate
02:57PM -21.7571 130.3842 123° Southeast  Level FlightAware Approximate
02:58PM -21.8303 130.5058 123° Southeast  Level FlightAware Approximate
02:59PM -21.9034 130.6276 123° Southeast  Level FlightAware Approximate
03:00PM -21.9764 130.7495 123° Southeast  Level FlightAware Approximate
03:00PM -22.0413 130.8581 123° Southeast 37,000  Level Aus ATC (Calculated)
03:01PM -21.9034 130.6276 303° West  Level FlightAware Approximate
03:02PM -21.9380 130.6853 303° West  Level FlightAware Approximate
03:02PM -22.1894 131.1069 123° Southeast 37,000  Level Aus ATC (Calculated)
03:04PM -22.0597 130.8889 303° West  Level FlightAware Approximate
03:05PM -21.9868 130.7669 303° West  Level FlightAware Approximate
03:05PM -22.3961 131.4560 303° West 37,000  Level Aus ATC (Calculated)
03:07PM -22.2584 131.2231 303° West  Level FlightAware Approximate
03:07PM -22.6314 131.8563 302° West 37,000  Level Aus ATC (Calculated)
03:08PM -22.1857 131.1007 303° West  Level FlightAware Approximate
03:09PM -22.6805 132.0179 123° Southeast  Level Estimated
03:09PM -22.2750 131.2510 123° Southeast 517 595 37,000  Level FlightAware
03:09PM -22.7780 132.1071 302° West 37,000  Level Aus ATC (Calculated)
03:10PM -22.7546 132.1397 123° Southeast  Level FlightAware Approximate
03:10PM -22.3290 131.3420 123° Southeast 516 594 37,000  Level FlightAware
03:10PM -22.3870 131.4400 123° Southeast 516 594 37,000  Level FlightAware
03:11PM -22.4360 131.5230 123° Southeast 516 594 37,000  Level FlightAware
03:12PM -22.4880 131.6110 123° Southeast 516 594 37,000  Level FlightAware
03:12PM -22.5470 131.7120 122° Southeast 516 594 37,000  Level FlightAware
03:13PM -22.5940 131.7920 122° Southeast 517 595 37,000  Level FlightAware
03:14PM -22.6500 131.8870 123° Southeast 517 595 37,000  Level FlightAware
03:14PM -23.1572 132.7618 302° West 37,000  Level Aus ATC (Calculated)
03:15PM -22.7050 131.9820 122° Southeast 518 596 37,000  Level FlightAware
03:15PM -22.7570 132.0700 122° Southeast 518 596 37,000  Level FlightAware
03:16PM -22.8140 132.1690 122° Southeast 518 596 37,000  Level FlightAware
03:17PM -22.8660 132.2590 122° Southeast 519 597 37,000  Level FlightAware
03:17PM -22.9200 132.3520 122° Southeast 518 596 37,000  Level FlightAware
03:18PM -22.9720 132.4410 122° Southeast 518 596 37,000  Level FlightAware
03:19PM -23.0250 132.5330 122° Southeast 517 595 37,000  Level FlightAware
03:19PM -23.5625 133.4710 302° West 37,000  Level Aus ATC (Calculated)
03:19PM -23.0840 132.6340 122° Southeast 516 594 37,000  Level FlightAware
03:20PM -23.1330 132.7200 122° Southeast 516 594 37,000  Level FlightAware
03:21PM -23.1920 132.8210 122° Southeast 515 593 37,000  Level FlightAware
03:22PM -23.2390 132.9030 122° Southeast 515 593 37,000  Level FlightAware
03:22PM -23.2900 132.9920 122° Southeast 514 592 37,000  Level FlightAware
03:23PM -23.7927 133.8782 302° West 37,000  Level Aus ATC (Calculated)
03:23PM -23.3470 133.0920 122° Southeast 514 592 37,000  Level FlightAware
03:24PM -23.3950 133.1760 122° Southeast 513 590 37,000  Level FlightAware
03:24PM -23.8570 134.1473 297° West 37,000  Level Aus ATC (Calculated)
03:24PM -23.4530 133.2780 122° Southeast 514 592 37,000  Level FlightAware
03:24PM -23.8570 134.1473 296° West 37,000  Level Aus ATC (Calculated)
03:25PM -23.5040 133.3670 122° Southeast 514 592 37,000  Level FlightAware
03:26PM -23.5500 133.4480 122° Southeast 515 593 37,000  Level FlightAware
03:26PM -23.6080 133.5510 122° Southeast 514 592 37,000  Level FlightAware
03:27PM -23.9632 134.5964 289° West 37,000  Level Aus ATC (Calculated)
03:27PM -23.6610 133.6440 122° Southeast 514 592 37,000  Level FlightAware
03:28PM -23.7160 133.7420 122° Southeast 514 592 37,000  Level FlightAware
03:29PM -23.7640 133.8280 121° Southeast 515 593 37,000  Level FlightAware
03:29PM -24.0263 134.8662 284° West 37,000  Level Aus ATC (Calculated)
03:29PM -24.0263 134.8662 284° West 37,000  Level Aus ATC (Calculated)
03:29PM -23.7980 133.9080 121° Southeast 523 602 37,000  Level FlightAware
03:30PM -23.8310 134.0380 121° Southeast 526 605 37,000  Level FlightAware
03:31PM -23.8560 134.1400 105° East 528 608 37,000  Level FlightAware
03:31PM -23.8830 134.2560 104° East 528 608 37,000  Level FlightAware
03:32PM -23.9080 134.3630 104° East 529 609 37,000  Level FlightAware
03:32PM -24.1510 135.4066 284° West 37,000  Level Aus ATC (Calculated)
03:33PM -23.9320 134.4620 105° East 529 609 37,000  Level FlightAware
03:33PM -23.9610 134.5860 105° East 528 608 37,000  Level FlightAware
03:34PM -24.2127 135.6772 284° West 37,000  Level Aus ATC (Calculated)
03:34PM -23.9850 134.6890 104° East 527 606 37,000  Level FlightAware
03:35PM -24.0070 134.7810 104° East 528 608 37,000  Level FlightAware
03:36PM -24.0360 134.9070 104° East 526 605 37,000  Level FlightAware
03:36PM -24.0590 135.0090 104° East 525 604 37,000  Level FlightAware
03:37PM -24.3144 136.1288 284° West 37,000  Level Aus ATC (Calculated)
03:37PM -24.0870 135.1280 104° East 523 602 37,000  Level FlightAware
03:38PM -24.1100 135.2290 104° East 523 602 37,000  Level FlightAware
03:38PM -24.3547 136.3096 284° West 37,000  Level Aus ATC (Calculated)
03:38PM -24.1340 135.3330 104° East 523 602 37,000  Level FlightAware
03:39PM -24.3948 136.4906 284° West 37,000  Level Aus ATC (Calculated)
03:39PM -24.1600 135.4440 104° East 522 601 37,000  Level FlightAware
03:40PM -24.1840 135.5510 104° East 521 600 37,000  Level FlightAware
03:40PM -24.2100 135.6660 104° East 521 600 37,000  Level FlightAware
03:43PM -24.2761 135.9587 104° East  Level FlightAware Approximate
03:43PM -24.2870 136.0080 104° East 520 598 37,000  Level FlightAware
03:43PM -24.3100 136.1070 104° East 520 598 37,000  Level FlightAware
03:44PM -24.5651 137.2736 283° West 37,000  Level Aus ATC (Calculated)
03:44PM -24.3310 136.2020 104° East 521 600 37,000  Level FlightAware
03:44PM -24.5773 137.3305 283° West 37,000  Level Aus ATC (Calculated)
03:45PM -24.3570 136.3190 104° East 521 600 37,000  Level FlightAware
03:45PM -24.3780 136.4150 104° East 522 601 37,000  Level FlightAware
03:46PM -24.4000 136.5160 103° East 523 602 37,000  Level FlightAware
03:47PM -24.4270 136.6350 104° East 522 601 37,000  Level FlightAware
03:47PM -24.4500 136.7400 104° East 523 602 37,000  Level FlightAware
03:48PM -24.6841 137.8341 283° West 37,000  Level Aus ATC (Calculated)
03:48PM -24.4730 136.8460 103° East 523 602 37,000  Level FlightAware
03:49PM -24.4970 136.9590 103° East 522 601 37,000  Level FlightAware
03:50PM -24.5190 137.0580 104° East 522 601 37,000  Level FlightAware
03:50PM -24.5380 137.1490 103° East 521 600 37,000  Level FlightAware
03:50PM -24.7743 138.2667 283° West 37,000  Level Aus ATC (Calculated)
03:51PM -24.7967 138.3749 283° West 37,000  Level Aus ATC (Calculated)
03:51PM -24.5670 137.2820 103° East 520 598 37,000  Level FlightAware
03:52PM -24.5920 137.4020 103° East 520 598 37,000  Level FlightAware
03:53PM -24.8412 138.5916 283° West 37,000  Level Aus ATC (Calculated)
03:53PM -24.6210 137.5350 103° East 517 595 37,000  Level FlightAware
03:53PM -24.6470 137.6580 103° East 516 594 37,000  Level FlightAware
03:54PM -24.8743 138.7541 283° West 37,000  Level Aus ATC (Calculated)
03:54PM -24.6690 137.7690 103° East 512 589 37,000  Level FlightAware
03:55PM -24.6860 137.8560 102° East 512 589 37,000  Level FlightAware
03:56PM -24.7030 137.9430 102° East 512 589 37,000  Level FlightAware
03:56PM -24.7190 138.0290 102° East 512 589 37,000  Level FlightAware
03:57PM -24.7400 138.1380 102° East 512 589 37,000  Level FlightAware
03:58PM -24.7570 138.2240 102° East 512 589 37,000  Level FlightAware
03:58PM -24.7740 138.3110 102° East 512 589 37,000  Level FlightAware
03:58PM -25.0375 139.5682 283° West 37,000  Level Aus ATC (Calculated)
03:59PM -24.7910 138.3980 102° East 512 589 37,000  Level FlightAware
04:00PM -24.8120 138.5060 102° East 512 589 37,000  Level FlightAware
04:01PM -24.8280 138.5930 101° East 512 589 37,000  Level FlightAware
04:01PM -24.8450 138.6800 102° East 512 589 37,000  Level FlightAware
04:02PM -24.8620 138.7670 102° East 512 589 37,000  Level FlightAware
04:03PM -24.8780 138.8540 101° East 512 589 37,000  Level FlightAware
04:03PM -24.8950 138.9410 102° East 512 589 37,000  Level FlightAware
04:03PM -25.1858 140.3299 283° West 37,000  Level Aus ATC (Calculated)
04:03PM -25.1858 140.3299 283° West 37,000  Level Aus ATC (Calculated)
04:04PM -24.9160 139.0490 102° East 512 589 37,000  Level FlightAware
04:05PM -24.9330 139.1360 102° East 512 589 37,000  Level FlightAware
04:05PM -24.9500 139.2230 102° East 512 589 37,000  Level FlightAware
04:06PM -24.9660 139.3100 101° East 512 589 37,000  Level FlightAware
04:07PM -24.9870 139.4180 102° East 512 589 37,000  Level FlightAware
04:08PM -25.0810 139.7900 106° East 37,000  Level FlightAware
04:08PM -25.3403 141.1481 282° West 37,000  Level Aus ATC (Calculated)
04:09PM -25.1380 140.0810 North 37,000  Level FlightAware
04:10PM -25.1910 141.1481 North  Level FlightAware Approximate
04:12PM -25.1950 140.3772 102° East  Level FlightAware Approximate
04:13PM -25.2226 140.5218 102° East  Level FlightAware Approximate
04:13PM -25.4844 141.9359 281° West 37,000  Level Aus ATC (Calculated)
04:14PM -25.2500 140.6665 102° East  Level FlightAware Approximate
04:15PM -25.2773 140.8112 102° East  Level FlightAware Approximate
04:15PM -25.3110 140.9900 102° East 503 579 37,000  Level FlightAware
04:16PM -25.3045 140.9561 102° East  Level FlightAware Approximate
04:16PM -25.3280 141.0890 102° East 503 579 37,000  Level FlightAware
04:17PM -25.5648 142.3869 281° West 37,000  Level Aus ATC (Calculated)
04:17PM -25.3430 141.1660 102° East 503 579 37,000  Level FlightAware
04:17PM -25.5847 142.4997 281° West 37,000  Level Aus ATC (Calculated)
04:17PM -25.3660 141.2870 102° East 503 579 37,000  Level FlightAware
04:18PM -25.3860 141.3930 102° East 503 579 37,000  Level FlightAware
04:19PM -25.4030 141.4870 101° East 503 579 37,000  Level FlightAware
04:20PM -25.4270 141.6190 101° East 503 579 37,000  Level FlightAware
04:20PM -25.4450 141.7220 101° East 502 578 37,000  Level FlightAware
04:21PM -25.4600 141.8080 101° East 502 578 37,000  Level FlightAware
04:21PM -25.7022 143.1776 281° West 37,000  Level Aus ATC (Calculated)
04:22PM -25.4750 141.8930 101° East 502 578 37,000  Level FlightAware
04:23PM -25.5090 142.0750 101° East 506 582 37,000  Level FlightAware
04:23PM -25.5300 142.1890 102° East 505 581 37,000  Level FlightAware
04:24PM -25.5460 142.2830 101° East 505 581 37,000  Level FlightAware
04:25PM -25.5670 142.3980 101° East 504 580 37,000  Level FlightAware
04:26PM -25.5880 142.5200 101° East 504 580 37,000  Level FlightAware
04:26PM -25.6060 142.6240 101° East 504 580 37,000  Level FlightAware
04:26PM -25.8354 143.9700 281° West 37,000  Level Aus ATC (Calculated)
04:27PM -25.6190 142.7110 101° East 504 580 37,000  Level FlightAware
04:28PM -25.6370 142.8190 100° East 504 580 37,000  Level FlightAware
04:29PM -25.6730 143.0110 102° East 501 577 37,000  Level FlightAware
04:30PM -25.6870 143.0970 100° East 501 577 37,000  Level FlightAware
04:30PM -25.7000 143.1830 100° East 501 577 37,000  Level FlightAware
04:31PM -25.7170 143.2910 100° East 501 577 37,000  Level FlightAware
04:31PM -25.9642 144.7642 280° West 37,000  Level Aus ATC (Calculated)
04:32PM -25.7490 143.4530 100° East 37,000  Level FlightAware
04:33PM -25.7770 143.6200 101° East 496 571 37,000  Level FlightAware
04:34PM -25.8050 143.7900 100° East 496 571 37,000  Level FlightAware
04:35PM -25.8190 143.8750 100° East 496 571 37,000  Level FlightAware
04:36PM -25.8360 143.9820 100° East 496 571 37,000  Level FlightAware
04:36PM -25.8490 144.0670 100° East 496 571 37,000  Level FlightAware
04:36PM -26.0716 145.4518 280° West 37,000  Level Aus ATC (Calculated)
04:37PM -25.8630 144.1530 100° East 496 571 37,000  Level FlightAware
04:38PM -25.8760 144.2380 100° East 496 571 37,000  Level FlightAware
04:38PM -25.8900 144.3230 100° East 496 571 37,000  Level FlightAware
04:39PM -25.9290 144.5430 101° East 37,000  Level FlightAware
04:40PM -25.9500 144.6760 100° East 496 571 37,000  Level FlightAware
04:41PM -26.1665 146.0780 279° West 37,000  Level Aus ATC (Calculated)
04:41PM -25.9660 144.7740 100° East 496 571 37,000  Level FlightAware
04:41PM -25.9790 144.8600 100° East 496 571 37,000  Level FlightAware
04:42PM -25.9930 144.9450 100° East 496 571 37,000  Level FlightAware
04:43PM -26.0130 145.0740 100° East 496 571 37,000  Level FlightAware
04:44PM -26.0270 145.1590 100° East 496 571 37,000  Level FlightAware
04:44PM -26.0370 145.2230 100° East 496 571 37,000  Level FlightAware
04:45PM -26.0500 145.3090 100° East 496 571 37,000  Level FlightAware
04:45PM -26.2676 146.7680 279° West 37,000  Level Aus ATC (Calculated)
04:45PM -26.0640 145.3940 100° East 496 571 37,000  Level FlightAware
04:46PM -26.0780 145.4800 100° East 496 571 37,000  Level FlightAware
04:47PM -26.0940 145.5870 99° East 496 571 37,000  Level FlightAware
04:48PM -26.1080 145.6720 100° East 496 571 37,000  Level FlightAware
04:48PM -26.3214 147.1448 279° West 37,000  Level Aus ATC (Calculated)
04:48PM -26.1220 145.7580 100° East 496 571 37,000  Level FlightAware
04:49PM -26.1350 145.8430 100° East 496 571 37,000  Level FlightAware
04:49PM -26.3480 147.3334 279° West 37,000  Level Aus ATC (Calculated)
04:50PM -26.1490 145.9290 100° East 496 571 37,000  Level FlightAware
04:50PM -26.3655 147.4591 279° West 37,000  Level Aus ATC (Calculated)
04:52PM -26.3888 147.6273 99° East  Level FlightAware Approximate
04:53PM -26.4098 147.7803 99° East  Level FlightAware Approximate
04:54PM -26.4307 147.9334 99° East  Level FlightAware Approximate
04:55PM -26.4513 148.0865 99° East  Level FlightAware Approximate
04:55PM -26.4685 148.2144 279° West 37,000  Level Aus ATC (Calculated)
04:56PM -26.4718 148.2396 99° East  Level FlightAware Approximate
04:57PM -26.4909 148.3829 98° East  Level FlightAware Approximate
04:57PM -26.3234 147.1664 98° East 487 560 37,400  Level Aus ATC (RADAR)
04:59PM -26.3675 147.4716 99° East 484 557 37,400  Level Aus ATC (RADAR)
05:00PM -26.3990 147.6984 99° East 467 537 37,400  Level Aus ATC (RADAR)
05:01PM -26.4153 147.8258 98° East 452 520 37,400 -300 Level Aus ATC (RADAR)
05:02PM -26.4210 147.8670 98° East 459 528 37,000 -360 Descending FlightAware
05:02PM -26.4330 147.9580 98° East 459 528 37,000  Level FlightAware
05:03PM -26.4440 148.0370 99° East 459 528 37,000 180 Level FlightAware
05:04PM -26.4629 148.1779 99° East 460 529 37,300  Climbing Aus ATC (RADAR)
05:04PM -26.4560 148.1370 99° East 459 528 37,000  Descending FlightAware
05:04PM -26.4737 148.2603 99° East 459 528 37,300  Climbing Aus ATC (RADAR)
05:04PM -26.4660 148.2170 99° East 459 528 37,000  Descending FlightAware
05:05PM -26.4831 148.3316 99° East 462 532 37,300  Climbing Aus ATC (RADAR)
05:05PM -26.4760 148.2970 99° East 459 528 37,000  Descending FlightAware
05:05PM -26.4983 148.4406 99° East 470 541 37,300  Climbing Aus ATC (RADAR)
05:06PM -26.4860 148.3770 99° East 459 528 37,000 -360 Descending FlightAware
05:06PM -26.4960 148.4570 99° East 459 528 37,000 420 Level FlightAware
05:06PM -26.5172 148.5846 99° East 465 535 37,300  Climbing Aus ATC (RADAR)
05:07PM -26.5060 148.5370 99° East 459 528 37,000  Descending FlightAware
05:07PM -26.5300 148.6806 99° East 466 536 37,300  Climbing Aus ATC (RADAR)
05:08PM -26.5190 148.6370 98° East 459 528 37,000  Descending FlightAware
05:08PM -26.5563 148.8470 98° East 463 533 37,300  Climbing Aus ATC (RADAR)
05:09PM -26.5290 148.7160 98° East 459 528 37,000  Descending FlightAware
05:09PM -26.5733 148.9288 98° East 463 533 37,300 600 Climbing Aus ATC (RADAR)
05:09PM -26.5810 148.9639 104° East 463 533 37,300 -720 Level Aus ATC (RADAR)
05:09PM -26.5390 148.7960 104° East 459 528 37,000  Descending FlightAware
05:10PM -26.5970 149.0457 104° East 460 529 37,300  Climbing Aus ATC (RADAR)
05:10PM -26.5490 148.8760 104° East 459 528 37,000  Descending FlightAware
05:10PM -26.6159 149.1397 104° East 461 531 37,300  Climbing Aus ATC (RADAR)
05:11PM -26.5610 148.9760 104° East 459 528 37,000 -300 Descending FlightAware
05:11PM -26.5720 149.0560 99° East 459 528 37,000 300 Level FlightAware
05:12PM -26.6539 149.3281 99° East 464 534 37,300 420 Climbing Aus ATC (RADAR)
05:12PM -26.6660 149.3859 103° East 459 528 37,300  Level Aus ATC (RADAR)
05:13PM -26.7028 149.5701 103° East 454 522 37,300  Level Aus ATC (RADAR)
05:14PM -26.7170 149.6396 103° East 455 524 37,300  Level Aus ATC (RADAR)
05:14PM -26.7282 149.6973 102° East 454 522 37,300  Level Aus ATC (RADAR)
05:15PM -26.7443 149.7785 103° East 455 524 37,300  Level Aus ATC (RADAR)
05:16PM -26.7649 149.8833 102° East 457 526 37,300  Level Aus ATC (RADAR)
05:16PM -26.7808 149.9642 102° East 454 522 37,300 -300 Level Aus ATC (RADAR)
05:17PM -26.7940 150.0320 102° East 458 527 37,000  Descending FlightAware
05:17PM -26.8103 150.1145 102° East 452 520 37,300  Climbing Aus ATC (RADAR)
05:17PM -26.8090 150.1090 102° East 458 527 37,000 -360 Descending FlightAware
05:18PM -26.8320 150.2240 103° East 454 522 37,000  Level FlightAware
05:19PM -26.8500 150.3160 102° East 452 520 37,000 240 Level FlightAware
05:19PM -26.8657 150.4001 102° East 444 511 37,300  Climbing Aus ATC (RADAR)
05:20PM -26.8690 150.4130 102° East 449 517 37,000  Descending FlightAware
05:20PM -26.8810 150.4792 102° East 442 509 37,300  Climbing Aus ATC (RADAR)
05:20PM -26.8860 150.5040 102° East 446 513 37,000  Descending FlightAware
05:21PM -26.8985 150.5696 102° East 442 509 37,300  Climbing Aus ATC (RADAR)
05:21PM -26.9040 150.5990 102° East 443 510 37,000 -300 Descending FlightAware
05:22PM -26.9250 150.7040 103° East 442 509 37,000 300 Level FlightAware
05:22PM -26.9414 150.7929 103° East 434 499 37,400  Climbing Aus ATC (RADAR)
05:22PM -26.9420 150.7950 103° East 441 507 37,000 -480 Descending FlightAware
05:23PM -26.9620 150.8970 102° East 441 507 37,000  Level FlightAware
05:24PM -26.9780 150.9850 102° East 443 510 37,000 360 Level FlightAware
05:24PM -26.9899 151.0497 102° East 439 505 37,400  Climbing Aus ATC (RADAR)
05:25PM -26.9950 151.0760 102° East 445 512 37,000 -420 Descending FlightAware
05:25PM -27.0140 151.1780 102° East 445 512 37,000  Level FlightAware
05:26PM -27.0310 151.2650 102° East 446 513 37,000 300 Level FlightAware
05:27PM -27.0469 151.3543 102° East 444 511 37,400  Climbing Aus ATC (RADAR)
05:27PM -27.0480 151.3580 102° East 448 516 37,000  Descending FlightAware
05:27PM -27.0638 151.4328 102° East 444 511 37,400  Climbing Aus ATC (RADAR)
05:27PM -27.0710 151.4530 102° East 438 504 37,000  Descending FlightAware
05:28PM -27.0945 151.5043 102° East 435 501 37,400  Climbing Aus ATC (RADAR)
05:28PM -27.1120 151.5360 102° East 433 498 37,000 -360 Descending FlightAware
05:29PM -27.1580 151.6240 120° Southeast 436 502 37,000  Level FlightAware
05:29PM -27.1980 151.7010 120° Southeast 438 504 37,000 360 Level FlightAware
05:30PM -27.2268 151.7569 120° Southeast 433 498 37,400  Climbing Aus ATC (RADAR)
05:30PM -27.2450 151.7900 120° Southeast 437 503 37,000 -420 Descending FlightAware
05:31PM -27.2860 151.8690 120° Southeast 438 504 37,000 -480 Level FlightAware
05:32PM -27.3260 151.9470 120° Southeast 433 498 36,400 -1,320 Descending FlightAware
05:32PM -27.3729 152.0380 120° Southeast 409 471 35,200 -1,920 Descending Aus ATC (RADAR)
05:32PM -27.3710 152.0330 120° Southeast 420 483 35,000 -3,240 Descending FlightAware
05:33PM -27.4030 152.0947 120° Southeast 409 471 33,600 -3,000 Descending Aus ATC (RADAR)
05:33PM -27.4110 152.1090 120° Southeast 429 494 33,000 -1,200 Descending FlightAware
05:34PM -27.4490 152.1840 120° Southeast 399 459 32,600 -660 Descending FlightAware
05:34PM -27.4890 152.2610 120° Southeast 367 422 32,100 -660 Descending FlightAware
05:35PM -27.5160 152.3133 120° Southeast 349 402 31,800 -1,380 Descending Aus ATC (RADAR)
05:35PM -27.5230 152.3250 120° Southeast 354 407 31,200 -1,380 Descending FlightAware
05:35PM -27.5445 152.3686 120° Southeast 343 395 31,000 -1,380 Descending Aus ATC (RADAR)
05:36PM -27.5590 152.3960 120° Southeast 342 394 30,200 -1,380 Descending FlightAware
05:36PM -27.5798 152.4381 120° Southeast 332 382 30,000 -1,380 Descending Aus ATC (RADAR)
05:36PM -27.5810 152.4520 120° Southeast 340 391 29,400 -2,100 Descending FlightAware
05:37PM -27.5730 152.4850 75° East 345 397 28,900 -1,560 Descending FlightAware
05:37PM -27.5560 152.5050 46° Northeast 349 402 28,500 -1,440 Descending FlightAware
05:37PM -27.5450 152.5110 26° Northeast 349 402 28,300 -1,680 Descending FlightAware
05:37PM -27.5170 152.5120 North 348 400 27,800 -1,800 Descending FlightAware
05:38PM -27.4960 152.5000 333° Northwest 347 399 27,400 -1,800 Descending FlightAware
05:38PM -27.4820 152.4790 307° West 340 391 26,900 -1,800 Descending FlightAware
05:38PM -27.4760 152.4540 285° West 334 384 26,500 -1,440 Descending FlightAware
05:39PM -27.4610 152.3900 285° West 330 380 25,600 -900 Descending FlightAware
05:39PM -27.4461 152.3346 285° West 325 374 25,500 -900 Descending Aus ATC (RADAR)
05:39PM -27.4440 152.3250 285° West 328 377 25,000 -1,440 Descending FlightAware
05:40PM -27.4470 152.2750 266° West 311 358 24,500 -960 Descending FlightAware
05:40PM -27.4620 152.2570 227° Southwest 307 353 24,300 -1,020 Descending FlightAware
05:40PM -27.4800 152.2480 204° Southwest 303 349 24,000 -1,080 Descending FlightAware
05:41PM -27.5150 152.2530 173° South 299 344 23,600 -1,080 Descending FlightAware
05:41PM -27.5300 152.2670 140° Southeast 299 344 23,300 -1,020 Descending FlightAware
05:41PM -27.5400 152.2890 117° Southeast 301 346 23,100 -1,020 Descending FlightAware
05:42PM -27.5550 152.3500 106° East 308 354 22,400 -720 Descending FlightAware
05:43PM -27.5698 152.4065 106° East 297 342 22,300 -960 Descending Aus ATC (RADAR)
05:43PM -27.5730 152.4200 106° East 303 349 21,700 -1,380 Descending FlightAware
05:43PM -27.5827 152.4599 106° East 296 341 21,500 -1,200 Descending Aus ATC (RADAR)
05:43PM -27.5880 152.4810 106° East 319 367 20,900 -1,560 Descending FlightAware
05:44PM -27.6070 152.5540 106° East 324 373 19,900 -1,260 Descending FlightAware
05:45PM -27.6190 152.6052 106° East 314 361 19,400 -1,500 Descending Aus ATC (RADAR)
05:45PM -27.6230 152.6190 106° East 320 368 18,900 -1,440 Descending FlightAware
05:45PM -27.6311 152.6531 106° East 311 358 18,700 -1,680 Descending Aus ATC (RADAR)
05:46PM -27.6390 152.6820 106° East 314 361 17,800 -1,800 Descending FlightAware
05:46PM -27.6400 152.7570 91° East 311 358 16,700 -1,500 Descending FlightAware
05:47PM -27.6250 152.8200 75° East 307 353 15,700 -1,320 Descending FlightAware
05:48PM -27.6100 152.8793 75° East 296 341 15,100 -1,500 Descending Aus ATC (RADAR)
05:48PM -27.6080 152.8880 75° East 300 345 14,600 -1,380 Descending FlightAware
05:48PM -27.5969 152.9317 75° East 289 333 14,300 -1,500 Descending Aus ATC (RADAR)
05:48PM -27.5930 152.9490 75° East 295 339 13,600 -1,800 Descending FlightAware
05:49PM -27.5780 153.0060 73° East 289 333 12,700 -1,320 Descending FlightAware
05:50PM -27.5650 153.0710 77° East 280 322 11,800 -900 Descending FlightAware
05:50PM -27.5547 153.1197 77° East 273 314 11,600 -1,080 Descending Aus ATC (RADAR)
05:50PM -27.5540 153.1260 77° East 273 314 11,100 -2,520 Descending FlightAware
05:51PM -27.5400 153.1610 66° East 282 325 10,200 -1,980 Descending FlightAware
05:51PM -27.5270 153.1720 37° Northeast 291 335 9,800 -1,620 Descending FlightAware
05:52PM -27.4900 153.1950 29° Northeast 287 330 9,000 -1,500 Descending FlightAware
05:52PM -27.4560 153.2170 30° Northeast 285 328 8,300 -1,440 Descending FlightAware
05:53PM -27.4250 153.2370 30° Northeast 282 325 7,700 -1,380 Descending FlightAware
05:53PM -27.4100 153.2470 31° Northeast 280 322 7,400 -1,380 Descending FlightAware
05:53PM -27.3760 153.2690 30° Northeast 277 319 6,700 -1,440 Descending FlightAware
05:54PM -27.3480 153.2870 30° Northeast 274 315 6,100 -1,440 Descending FlightAware
05:54PM -27.3150 153.3090 31° Northeast 272 313 5,400 -1,500 Descending FlightAware
05:54PM -27.2990 153.3190 29° Northeast 273 314 5,000 -1,680 Descending FlightAware
05:55PM -27.2870 153.3240 20° North 281 323 4,700 -780 Descending FlightAware
05:55PM -27.2573 153.3160 20° North 279 321 4,600 -1,200 Descending Aus ATC (RADAR)
05:55PM -27.2520 153.3090 20° North 283 326 4,100 -1,800 Descending FlightAware
05:55PM -27.2420 153.2900 301° West 269 310 3,900 -540 Descending FlightAware
05:56PM -27.2250 153.2550 299° West 234 269 3,700 -480 Descending FlightAware
05:56PM -27.2220 153.2440 287° West 224 258 3,600 -1,080 Descending FlightAware
05:56PM -27.2280 153.2210 254° West 204 235 3,100 -1,080 Descending FlightAware
05:57PM -27.2440 153.2090 214° Southwest 186 214 2,800 -1,200 Descending FlightAware
05:57PM -27.2620 153.1980 209° Southwest 187 215 2,200 -960 Descending FlightAware
05:58PM -27.2815 153.1871 209° Southwest 184 212 2,100 -1,200 Descending Aus ATC (RADAR)
05:58PM -27.2830 153.1860 209° Southwest 171 197 1,600 -1,440 Descending FlightAware
05:58PM -27.3050 153.1740 206° Southwest 156 180 1,200 -900 Descending FlightAware
05:59PM -27.3200 153.1650 208° Southwest 148 170 800 -900 Descending FlightAware
05:59PM -27.3380 153.1550 206° Southwest 144 166 400 -780 Descending FlightAware
06:00PM -27.3530 153.1470 205° Southwest 140 161 100 -720 Descending FlightAware
06:00PM -27.3710 153.1360 208° Southwest 141 162 -240 Descending FlightAware
06:00PM -27.3830 153.1300 204° Southwest 120 138  Level FlightAware